sensor_id;sensor_type;location;lat;lon;timestamp;P1;durP1;ratioP1;P2;durP2;ratioP2
47219;SDS011;32961;51.936;4.788;2023-07-09T00:01:28;10.07;;;5.72;;
47219;SDS011;32961;51.936;4.788;2023-07-09T00:03:56;13.20;;;5.70;;
47219;SDS011;32961;51.936;4.788;2023-07-09T00:06:26;15.75;;;6.22;;
47219;SDS011;32961;51.936;4.788;2023-07-09T00:08:53;15.25;;;6.32;;
47219;SDS011;32961;51.936;4.788;2023-07-09T00:11:21;10.25;;;5.68;;
47219;SDS011;32961;51.936;4.788;2023-07-09T00:13:49;10.73;;;5.88;;
47219;SDS011;32961;51.936;4.788;2023-07-09T00:16:18;12.02;;;6.45;;
47219;SDS011;32961;51.936;4.788;2023-07-09T00:18:48;10.80;;;6.65;;
47219;SDS011;32961;51.936;4.788;2023-07-09T00:21:16;14.55;;;6.93;;
47219;SDS011;32961;51.936;4.788;2023-07-09T00:23:48;13.23;;;6.50;;
47219;SDS011;32961;51.936;4.788;2023-07-09T00:26:16;10.13;;;6.35;;
47219;SDS011;32961;51.936;4.788;2023-07-09T00:31:17;10.50;;;6.05;;
47219;SDS011;32961;51.936;4.788;2023-07-09T00:33:45;9.95;;;6.10;;
47219;SDS011;32961;51.936;4.788;2023-07-09T00:36:14;12.88;;;6.47;;
47219;SDS011;32961;51.936;4.788;2023-07-09T00:38:43;11.98;;;6.65;;
47219;SDS011;32961;51.936;4.788;2023-07-09T00:41:16;10.40;;;6.07;;
47219;SDS011;32961;51.936;4.788;2023-07-09T00:43:46;13.95;;;6.50;;
47219;SDS011;32961;51.936;4.788;2023-07-09T00:49:24;13.77;;;6.70;;
47219;SDS011;32961;51.936;4.788;2023-07-09T00:51:56;14.23;;;7.22;;
47219;SDS011;32961;51.936;4.788;2023-07-09T00:54:30;19.75;;;7.35;;
47219;SDS011;32961;51.936;4.788;2023-07-09T00:57:05;13.23;;;7.20;;
47219;SDS011;32961;51.936;4.788;2023-07-09T00:59:37;13.48;;;7.05;;
47219;SDS011;32961;51.936;4.788;2023-07-09T01:02:07;14.63;;;7.35;;
47219;SDS011;32961;51.936;4.788;2023-07-09T01:04:36;15.80;;;7.50;;
47219;SDS011;32961;51.936;4.788;2023-07-09T01:07:05;17.70;;;7.05;;
47219;SDS011;32961;51.936;4.788;2023-07-09T01:09:34;14.13;;;6.60;;
47219;SDS011;32961;51.936;4.788;2023-07-09T01:12:09;14.32;;;7.72;;
47219;SDS011;32961;51.936;4.788;2023-07-09T01:14:38;10.85;;;6.97;;
47219;SDS011;32961;51.936;4.788;2023-07-09T01:17:06;16.85;;;7.80;;
47219;SDS011;32961;51.936;4.788;2023-07-09T01:19:38;17.75;;;8.30;;
47219;SDS011;32961;51.936;4.788;2023-07-09T01:22:11;10.48;;;7.15;;
47219;SDS011;32961;51.936;4.788;2023-07-09T01:24:48;15.95;;;6.93;;
47219;SDS011;32961;51.936;4.788;2023-07-09T01:27:19;12.90;;;7.43;;
47219;SDS011;32961;51.936;4.788;2023-07-09T01:29:48;15.90;;;7.57;;
47219;SDS011;32961;51.936;4.788;2023-07-09T01:32:16;15.18;;;7.50;;
47219;SDS011;32961;51.936;4.788;2023-07-09T01:34:46;12.05;;;8.27;;
47219;SDS011;32961;51.936;4.788;2023-07-09T01:37:17;15.40;;;7.68;;
47219;SDS011;32961;51.936;4.788;2023-07-09T01:39:48;16.63;;;7.97;;
47219;SDS011;32961;51.936;4.788;2023-07-09T01:42:16;14.00;;;7.93;;
47219;SDS011;32961;51.936;4.788;2023-07-09T01:44:46;14.65;;;8.38;;
47219;SDS011;32961;51.936;4.788;2023-07-09T01:47:14;15.95;;;8.80;;
47219;SDS011;32961;51.936;4.788;2023-07-09T01:49:42;13.65;;;7.72;;
47219;SDS011;32961;51.936;4.788;2023-07-09T01:52:13;10.63;;;7.57;;
47219;SDS011;32961;51.936;4.788;2023-07-09T01:54:43;12.73;;;7.68;;
47219;SDS011;32961;51.936;4.788;2023-07-09T01:57:19;14.13;;;8.88;;
47219;SDS011;32961;51.936;4.788;2023-07-09T01:59:49;13.63;;;8.30;;
47219;SDS011;32961;51.936;4.788;2023-07-09T02:02:19;12.70;;;8.02;;
47219;SDS011;32961;51.936;4.788;2023-07-09T02:04:47;11.70;;;7.60;;
47219;SDS011;32961;51.936;4.788;2023-07-09T02:07:16;15.63;;;7.95;;
47219;SDS011;32961;51.936;4.788;2023-07-09T02:09:47;12.73;;;7.93;;
47219;SDS011;32961;51.936;4.788;2023-07-09T02:12:15;15.45;;;7.82;;
47219;SDS011;32961;51.936;4.788;2023-07-09T02:14:44;13.95;;;7.45;;
47219;SDS011;32961;51.936;4.788;2023-07-09T02:17:13;14.80;;;7.95;;
47219;SDS011;32961;51.936;4.788;2023-07-09T02:19:42;13.40;;;7.82;;
47219;SDS011;32961;51.936;4.788;2023-07-09T02:22:11;15.55;;;8.57;;
47219;SDS011;32961;51.936;4.788;2023-07-09T02:24:39;13.68;;;8.20;;
47219;SDS011;32961;51.936;4.788;2023-07-09T02:27:09;13.93;;;8.65;;
47219;SDS011;32961;51.936;4.788;2023-07-09T02:29:38;15.27;;;7.50;;
47219;SDS011;32961;51.936;4.788;2023-07-09T02:32:06;17.92;;;9.07;;
47219;SDS011;32961;51.936;4.788;2023-07-09T02:34:35;17.75;;;8.52;;
47219;SDS011;32961;51.936;4.788;2023-07-09T02:37:02;13.98;;;8.43;;
47219;SDS011;32961;51.936;4.788;2023-07-09T02:39:30;21.02;;;8.68;;
47219;SDS011;32961;51.936;4.788;2023-07-09T02:41:58;16.27;;;8.43;;
47219;SDS011;32961;51.936;4.788;2023-07-09T02:44:27;17.73;;;9.18;;
47219;SDS011;32961;51.936;4.788;2023-07-09T02:46:55;15.00;;;8.70;;
47219;SDS011;32961;51.936;4.788;2023-07-09T02:49:23;19.10;;;8.88;;
47219;SDS011;32961;51.936;4.788;2023-07-09T02:51:51;13.80;;;8.40;;
47219;SDS011;32961;51.936;4.788;2023-07-09T02:54:18;13.65;;;8.98;;
47219;SDS011;32961;51.936;4.788;2023-07-09T02:56:46;17.38;;;8.60;;
47219;SDS011;32961;51.936;4.788;2023-07-09T02:59:15;18.85;;;9.65;;
47219;SDS011;32961;51.936;4.788;2023-07-09T03:01:44;12.77;;;8.85;;
47219;SDS011;32961;51.936;4.788;2023-07-09T03:04:13;16.25;;;9.65;;
47219;SDS011;32961;51.936;4.788;2023-07-09T03:06:41;15.57;;;9.57;;
47219;SDS011;32961;51.936;4.788;2023-07-09T03:09:09;17.08;;;10.30;;
47219;SDS011;32961;51.936;4.788;2023-07-09T03:11:37;16.60;;;9.82;;
47219;SDS011;32961;51.936;4.788;2023-07-09T03:14:05;19.38;;;9.73;;
47219;SDS011;32961;51.936;4.788;2023-07-09T03:16:33;16.70;;;9.63;;
47219;SDS011;32961;51.936;4.788;2023-07-09T03:19:03;17.88;;;10.02;;
47219;SDS011;32961;51.936;4.788;2023-07-09T03:21:31;13.48;;;9.10;;
47219;SDS011;32961;51.936;4.788;2023-07-09T03:23:59;16.80;;;9.63;;
47219;SDS011;32961;51.936;4.788;2023-07-09T03:26:27;14.30;;;9.68;;
47219;SDS011;32961;51.936;4.788;2023-07-09T03:28:55;14.77;;;8.98;;
47219;SDS011;32961;51.936;4.788;2023-07-09T03:31:23;13.50;;;8.85;;
47219;SDS011;32961;51.936;4.788;2023-07-09T03:33:51;18.02;;;9.20;;
47219;SDS011;32961;51.936;4.788;2023-07-09T03:36:21;14.30;;;9.27;;
47219;SDS011;32961;51.936;4.788;2023-07-09T03:38:48;15.65;;;10.07;;
47219;SDS011;32961;51.936;4.788;2023-07-09T03:41:16;17.75;;;10.55;;
47219;SDS011;32961;51.936;4.788;2023-07-09T03:43:44;13.73;;;9.73;;
47219;SDS011;32961;51.936;4.788;2023-07-09T03:46:12;13.60;;;9.55;;
47219;SDS011;32961;51.936;4.788;2023-07-09T03:48:40;13.75;;;9.02;;
47219;SDS011;32961;51.936;4.788;2023-07-09T03:51:08;14.68;;;9.60;;
47219;SDS011;32961;51.936;4.788;2023-07-09T03:53:37;17.17;;;8.98;;
47219;SDS011;32961;51.936;4.788;2023-07-09T03:56:05;16.85;;;8.80;;
47219;SDS011;32961;51.936;4.788;2023-07-09T03:58:32;14.88;;;9.35;;
47219;SDS011;32961;51.936;4.788;2023-07-09T04:01:00;16.52;;;9.90;;
47219;SDS011;32961;51.936;4.788;2023-07-09T04:03:28;15.75;;;11.00;;
47219;SDS011;32961;51.936;4.788;2023-07-09T04:05:56;12.82;;;9.35;;
47219;SDS011;32961;51.936;4.788;2023-07-09T04:08:24;13.55;;;9.63;;
47219;SDS011;32961;51.936;4.788;2023-07-09T04:10:54;15.35;;;10.18;;
47219;SDS011;32961;51.936;4.788;2023-07-09T04:13:26;18.33;;;11.30;;
47219;SDS011;32961;51.936;4.788;2023-07-09T04:15:54;14.77;;;10.45;;
47219;SDS011;32961;51.936;4.788;2023-07-09T04:18:22;20.77;;;10.77;;
47219;SDS011;32961;51.936;4.788;2023-07-09T04:20:50;23.27;;;10.75;;
47219;SDS011;32961;51.936;4.788;2023-07-09T04:23:19;16.30;;;10.30;;
47219;SDS011;32961;51.936;4.788;2023-07-09T04:25:47;18.15;;;9.90;;
47219;SDS011;32961;51.936;4.788;2023-07-09T04:28:16;18.05;;;10.02;;
47219;SDS011;32961;51.936;4.788;2023-07-09T04:30:45;18.75;;;10.57;;
47219;SDS011;32961;51.936;4.788;2023-07-09T04:33:15;16.15;;;10.60;;
47219;SDS011;32961;51.936;4.788;2023-07-09T04:35:44;15.68;;;9.73;;
47219;SDS011;32961;51.936;4.788;2023-07-09T04:38:13;14.73;;;10.07;;
47219;SDS011;32961;51.936;4.788;2023-07-09T04:40:41;15.57;;;10.73;;
47219;SDS011;32961;51.936;4.788;2023-07-09T04:43:09;17.60;;;9.80;;
47219;SDS011;32961;51.936;4.788;2023-07-09T04:45:38;18.33;;;9.93;;
47219;SDS011;32961;51.936;4.788;2023-07-09T04:48:06;15.05;;;10.02;;
47219;SDS011;32961;51.936;4.788;2023-07-09T04:50:34;15.32;;;10.82;;
47219;SDS011;32961;51.936;4.788;2023-07-09T04:53:02;16.83;;;9.60;;
47219;SDS011;32961;51.936;4.788;2023-07-09T04:55:30;16.20;;;9.50;;
47219;SDS011;32961;51.936;4.788;2023-07-09T04:57:58;19.80;;;11.13;;
47219;SDS011;32961;51.936;4.788;2023-07-09T05:00:26;16.95;;;11.02;;
47219;SDS011;32961;51.936;4.788;2023-07-09T05:02:55;16.42;;;9.93;;
47219;SDS011;32961;51.936;4.788;2023-07-09T05:05:23;16.45;;;10.57;;
47219;SDS011;32961;51.936;4.788;2023-07-09T05:07:51;17.60;;;9.98;;
47219;SDS011;32961;51.936;4.788;2023-07-09T05:10:19;16.23;;;10.43;;
47219;SDS011;32961;51.936;4.788;2023-07-09T05:12:47;21.05;;;11.57;;
47219;SDS011;32961;51.936;4.788;2023-07-09T05:15:16;20.13;;;10.02;;
47219;SDS011;32961;51.936;4.788;2023-07-09T05:17:45;14.05;;;9.98;;
47219;SDS011;32961;51.936;4.788;2023-07-09T05:20:15;20.20;;;10.65;;
47219;SDS011;32961;51.936;4.788;2023-07-09T05:22:43;18.00;;;10.02;;
47219;SDS011;32961;51.936;4.788;2023-07-09T05:25:11;16.90;;;10.68;;
47219;SDS011;32961;51.936;4.788;2023-07-09T05:27:39;16.67;;;10.20;;
47219;SDS011;32961;51.936;4.788;2023-07-09T05:30:07;15.10;;;9.63;;
47219;SDS011;32961;51.936;4.788;2023-07-09T05:32:36;17.85;;;10.10;;
47219;SDS011;32961;51.936;4.788;2023-07-09T05:35:05;17.15;;;10.23;;
47219;SDS011;32961;51.936;4.788;2023-07-09T05:37:35;16.98;;;11.10;;
47219;SDS011;32961;51.936;4.788;2023-07-09T05:40:04;21.33;;;10.43;;
47219;SDS011;32961;51.936;4.788;2023-07-09T05:42:33;15.25;;;10.98;;
47219;SDS011;32961;51.936;4.788;2023-07-09T05:45:01;15.73;;;10.68;;
47219;SDS011;32961;51.936;4.788;2023-07-09T05:47:29;17.75;;;10.52;;
47219;SDS011;32961;51.936;4.788;2023-07-09T05:49:57;16.13;;;10.52;;
47219;SDS011;32961;51.936;4.788;2023-07-09T05:52:25;15.02;;;10.52;;
47219;SDS011;32961;51.936;4.788;2023-07-09T05:54:56;20.02;;;10.70;;
47219;SDS011;32961;51.936;4.788;2023-07-09T05:57:24;17.42;;;11.07;;
47219;SDS011;32961;51.936;4.788;2023-07-09T05:59:52;17.05;;;11.30;;
47219;SDS011;32961;51.936;4.788;2023-07-09T06:02:20;24.88;;;12.23;;
47219;SDS011;32961;51.936;4.788;2023-07-09T06:04:48;17.75;;;11.10;;
47219;SDS011;32961;51.936;4.788;2023-07-09T06:07:17;17.25;;;11.80;;
47219;SDS011;32961;51.936;4.788;2023-07-09T06:09:45;18.80;;;10.88;;
47219;SDS011;32961;51.936;4.788;2023-07-09T06:12:15;22.90;;;11.73;;
47219;SDS011;32961;51.936;4.788;2023-07-09T06:14:43;14.50;;;11.52;;
47219;SDS011;32961;51.936;4.788;2023-07-09T06:17:11;21.10;;;11.77;;
47219;SDS011;32961;51.936;4.788;2023-07-09T06:19:39;19.15;;;11.55;;
47219;SDS011;32961;51.936;4.788;2023-07-09T06:22:07;16.48;;;11.57;;
47219;SDS011;32961;51.936;4.788;2023-07-09T06:24:35;14.45;;;11.23;;
47219;SDS011;32961;51.936;4.788;2023-07-09T06:27:02;19.23;;;11.70;;
47219;SDS011;32961;51.936;4.788;2023-07-09T06:29:32;17.60;;;11.10;;
47219;SDS011;32961;51.936;4.788;2023-07-09T06:32:00;20.67;;;11.68;;
47219;SDS011;32961;51.936;4.788;2023-07-09T06:34:28;21.00;;;11.40;;
47219;SDS011;32961;51.936;4.788;2023-07-09T06:36:55;16.60;;;11.02;;
47219;SDS011;32961;51.936;4.788;2023-07-09T06:39:24;18.30;;;11.20;;
47219;SDS011;32961;51.936;4.788;2023-07-09T06:41:52;16.65;;;11.38;;
47219;SDS011;32961;51.936;4.788;2023-07-09T06:44:20;17.48;;;11.75;;
47219;SDS011;32961;51.936;4.788;2023-07-09T06:46:49;22.75;;;11.73;;
47219;SDS011;32961;51.936;4.788;2023-07-09T06:49:17;16.75;;;11.55;;
47219;SDS011;32961;51.936;4.788;2023-07-09T06:51:45;15.98;;;11.30;;
47219;SDS011;32961;51.936;4.788;2023-07-09T06:54:13;22.17;;;11.07;;
47219;SDS011;32961;51.936;4.788;2023-07-09T06:56:41;22.48;;;11.57;;
47219;SDS011;32961;51.936;4.788;2023-07-09T06:59:09;16.35;;;11.10;;
47219;SDS011;32961;51.936;4.788;2023-07-09T07:01:37;16.63;;;11.48;;
47219;SDS011;32961;51.936;4.788;2023-07-09T07:04:06;16.88;;;10.68;;
47219;SDS011;32961;51.936;4.788;2023-07-09T07:06:34;16.08;;;9.88;;
47219;SDS011;32961;51.936;4.788;2023-07-09T07:09:02;16.00;;;9.30;;
47219;SDS011;32961;51.936;4.788;2023-07-09T07:11:30;18.00;;;9.60;;
47219;SDS011;32961;51.936;4.788;2023-07-09T07:13:58;18.80;;;9.98;;
47219;SDS011;32961;51.936;4.788;2023-07-09T07:16:25;14.45;;;9.38;;
47219;SDS011;32961;51.936;4.788;2023-07-09T07:18:53;16.63;;;9.38;;
47219;SDS011;32961;51.936;4.788;2023-07-09T07:21:22;16.60;;;11.70;;
47219;SDS011;32961;51.936;4.788;2023-07-09T07:23:50;20.55;;;13.27;;
47219;SDS011;32961;51.936;4.788;2023-07-09T07:26:19;21.30;;;13.18;;
47219;SDS011;32961;51.936;4.788;2023-07-09T07:28:47;19.98;;;13.35;;
47219;SDS011;32961;51.936;4.788;2023-07-09T07:31:16;23.73;;;14.82;;
47219;SDS011;32961;51.936;4.788;2023-07-09T07:33:44;27.33;;;15.80;;
47219;SDS011;32961;51.936;4.788;2023-07-09T07:36:12;19.10;;;14.00;;
47219;SDS011;32961;51.936;4.788;2023-07-09T07:38:44;27.48;;;15.35;;
47219;SDS011;32961;51.936;4.788;2023-07-09T07:41:12;21.70;;;15.95;;
47219;SDS011;32961;51.936;4.788;2023-07-09T07:43:40;22.00;;;16.42;;
47219;SDS011;32961;51.936;4.788;2023-07-09T07:46:08;26.48;;;16.50;;
47219;SDS011;32961;51.936;4.788;2023-07-09T07:48:36;22.67;;;16.50;;
47219;SDS011;32961;51.936;4.788;2023-07-09T07:51:03;24.15;;;15.73;;
47219;SDS011;32961;51.936;4.788;2023-07-09T07:53:31;23.15;;;14.70;;
47219;SDS011;32961;51.936;4.788;2023-07-09T07:56:00;20.20;;;13.48;;
47219;SDS011;32961;51.936;4.788;2023-07-09T07:58:29;17.90;;;12.30;;
47219;SDS011;32961;51.936;4.788;2023-07-09T08:00:58;17.17;;;11.52;;
47219;SDS011;32961;51.936;4.788;2023-07-09T08:03:27;15.57;;;10.77;;
47219;SDS011;32961;51.936;4.788;2023-07-09T08:05:55;17.05;;;11.52;;
47219;SDS011;32961;51.936;4.788;2023-07-09T08:08:27;22.17;;;12.48;;
47219;SDS011;32961;51.936;4.788;2023-07-09T08:11:01;20.08;;;11.73;;
47219;SDS011;32961;51.936;4.788;2023-07-09T08:13:31;20.42;;;11.30;;
47219;SDS011;32961;51.936;4.788;2023-07-09T08:16:00;19.70;;;11.45;;
47219;SDS011;32961;51.936;4.788;2023-07-09T08:18:28;17.75;;;10.25;;
47219;SDS011;32961;51.936;4.788;2023-07-09T08:20:57;14.45;;;9.40;;
47219;SDS011;32961;51.936;4.788;2023-07-09T08:23:25;20.48;;;9.77;;
47219;SDS011;32961;51.936;4.788;2023-07-09T08:25:53;18.25;;;10.65;;
47219;SDS011;32961;51.936;4.788;2023-07-09T08:28:22;15.65;;;11.00;;
47219;SDS011;32961;51.936;4.788;2023-07-09T08:30:51;18.48;;;11.60;;
47219;SDS011;32961;51.936;4.788;2023-07-09T08:33:19;15.77;;;10.27;;
47219;SDS011;32961;51.936;4.788;2023-07-09T08:35:48;16.90;;;10.32;;
47219;SDS011;32961;51.936;4.788;2023-07-09T08:38:16;18.88;;;11.48;;
47219;SDS011;32961;51.936;4.788;2023-07-09T08:40:49;16.02;;;11.63;;
47219;SDS011;32961;51.936;4.788;2023-07-09T08:43:24;14.45;;;8.57;;
47219;SDS011;32961;51.936;4.788;2023-07-09T08:46:07;14.05;;;9.52;;
47219;SDS011;32961;51.936;4.788;2023-07-09T08:48:40;20.77;;;10.35;;
47219;SDS011;32961;51.936;4.788;2023-07-09T08:51:13;14.77;;;10.20;;
47219;SDS011;32961;51.936;4.788;2023-07-09T08:53:45;21.10;;;10.88;;
47219;SDS011;32961;51.936;4.788;2023-07-09T08:58:49;21.33;;;10.80;;
47219;SDS011;32961;51.936;4.788;2023-07-09T09:01:20;16.00;;;11.45;;
47219;SDS011;32961;51.936;4.788;2023-07-09T09:03:51;20.33;;;12.30;;
47219;SDS011;32961;51.936;4.788;2023-07-09T09:06:22;24.00;;;13.02;;
47219;SDS011;32961;51.936;4.788;2023-07-09T09:08:58;18.52;;;12.10;;
47219;SDS011;32961;51.936;4.788;2023-07-09T09:11:36;19.08;;;12.25;;
47219;SDS011;32961;51.936;4.788;2023-07-09T09:14:25;18.60;;;11.35;;
47219;SDS011;32961;51.936;4.788;2023-07-09T09:16:56;16.17;;;11.73;;
47219;SDS011;32961;51.936;4.788;2023-07-09T09:19:26;18.27;;;11.50;;
47219;SDS011;32961;51.936;4.788;2023-07-09T09:21:57;19.73;;;11.48;;
47219;SDS011;32961;51.936;4.788;2023-07-09T09:24:31;20.60;;;13.20;;
47219;SDS011;32961;51.936;4.788;2023-07-09T09:27:04;21.17;;;13.13;;
47219;SDS011;32961;51.936;4.788;2023-07-09T09:29:33;17.27;;;11.80;;
47219;SDS011;32961;51.936;4.788;2023-07-09T09:32:02;18.27;;;12.38;;
47219;SDS011;32961;51.936;4.788;2023-07-09T09:34:47;21.10;;;11.75;;
47219;SDS011;32961;51.936;4.788;2023-07-09T09:37:15;16.83;;;11.55;;
47219;SDS011;32961;51.936;4.788;2023-07-09T09:39:52;17.65;;;11.15;;
47219;SDS011;32961;51.936;4.788;2023-07-09T09:42:38;19.70;;;9.88;;
47219;SDS011;32961;51.936;4.788;2023-07-09T09:45:11;14.98;;;9.27;;
47219;SDS011;32961;51.936;4.788;2023-07-09T09:47:43;16.02;;;9.75;;
47219;SDS011;32961;51.936;4.788;2023-07-09T09:50:13;14.93;;;9.70;;
47219;SDS011;32961;51.936;4.788;2023-07-09T09:52:42;13.02;;;9.25;;
47219;SDS011;32961;51.936;4.788;2023-07-09T09:55:11;15.35;;;9.75;;
47219;SDS011;32961;51.936;4.788;2023-07-09T09:57:48;15.32;;;9.52;;
47219;SDS011;32961;51.936;4.788;2023-07-09T10:00:19;14.55;;;10.70;;
47219;SDS011;32961;51.936;4.788;2023-07-09T10:02:56;16.80;;;10.82;;
47219;SDS011;32961;51.936;4.788;2023-07-09T10:05:27;18.80;;;12.18;;
47219;SDS011;32961;51.936;4.788;2023-07-09T10:08:03;17.10;;;10.88;;
47219;SDS011;32961;51.936;4.788;2023-07-09T10:10:37;16.00;;;10.75;;
47219;SDS011;32961;51.936;4.788;2023-07-09T10:13:11;16.83;;;10.32;;
47219;SDS011;32961;51.936;4.788;2023-07-09T10:16:05;14.00;;;10.70;;
47219;SDS011;32961;51.936;4.788;2023-07-09T10:18:42;13.07;;;10.13;;
47219;SDS011;32961;51.936;4.788;2023-07-09T10:21:18;15.80;;;9.93;;
47219;SDS011;32961;51.936;4.788;2023-07-09T10:23:54;14.43;;;8.77;;
47219;SDS011;32961;51.936;4.788;2023-07-09T10:26:36;13.05;;;8.82;;
47219;SDS011;32961;51.936;4.788;2023-07-09T10:29:23;15.45;;;8.55;;
47219;SDS011;32961;51.936;4.788;2023-07-09T10:32:04;16.77;;;8.88;;
47219;SDS011;32961;51.936;4.788;2023-07-09T10:34:40;12.60;;;8.00;;
47219;SDS011;32961;51.936;4.788;2023-07-09T10:37:21;16.92;;;9.20;;
47219;SDS011;32961;51.936;4.788;2023-07-09T10:39:59;12.48;;;8.25;;
47219;SDS011;32961;51.936;4.788;2023-07-09T10:42:30;13.63;;;8.75;;
47219;SDS011;32961;51.936;4.788;2023-07-09T10:47:38;14.05;;;8.73;;
47219;SDS011;32961;51.936;4.788;2023-07-09T10:50:12;14.88;;;9.02;;
47219;SDS011;32961;51.936;4.788;2023-07-09T10:52:46;13.32;;;8.07;;
47219;SDS011;32961;51.936;4.788;2023-07-09T10:55:21;12.77;;;7.85;;
47219;SDS011;32961;51.936;4.788;2023-07-09T10:57:57;12.18;;;7.25;;
47219;SDS011;32961;51.936;4.788;2023-07-09T11:00:31;13.65;;;7.60;;
47219;SDS011;32961;51.936;4.788;2023-07-09T11:03:03;13.80;;;7.25;;
47219;SDS011;32961;51.936;4.788;2023-07-09T11:05:38;10.32;;;7.70;;
47219;SDS011;32961;51.936;4.788;2023-07-09T11:08:10;16.25;;;8.23;;
47219;SDS011;32961;51.936;4.788;2023-07-09T11:10:42;11.20;;;7.32;;
47219;SDS011;32961;51.936;4.788;2023-07-09T11:13:14;12.47;;;7.10;;
47219;SDS011;32961;51.936;4.788;2023-07-09T11:15:45;13.95;;;7.63;;
47219;SDS011;32961;51.936;4.788;2023-07-09T11:18:19;11.80;;;6.93;;
47219;SDS011;32961;51.936;4.788;2023-07-09T11:20:54;12.55;;;6.03;;
47219;SDS011;32961;51.936;4.788;2023-07-09T11:23:36;11.40;;;6.72;;
47219;SDS011;32961;51.936;4.788;2023-07-09T11:26:10;13.00;;;6.70;;
47219;SDS011;32961;51.936;4.788;2023-07-09T11:28:41;13.75;;;7.85;;
47219;SDS011;32961;51.936;4.788;2023-07-09T11:31:17;12.60;;;8.02;;
47219;SDS011;32961;51.936;4.788;2023-07-09T11:33:59;12.70;;;7.93;;
47219;SDS011;32961;51.936;4.788;2023-07-09T11:36:29;12.07;;;7.68;;
47219;SDS011;32961;51.936;4.788;2023-07-09T11:38:58;12.38;;;7.65;;
47219;SDS011;32961;51.936;4.788;2023-07-09T11:41:29;13.65;;;6.88;;
47219;SDS011;32961;51.936;4.788;2023-07-09T11:44:11;12.25;;;6.60;;
47219;SDS011;32961;51.936;4.788;2023-07-09T11:46:49;10.98;;;5.32;;
47219;SDS011;32961;51.936;4.788;2023-07-09T11:49:23;7.38;;;4.53;;
47219;SDS011;32961;51.936;4.788;2023-07-09T11:51:54;18.15;;;5.30;;
47219;SDS011;32961;51.936;4.788;2023-07-09T11:54:26;8.35;;;4.15;;
47219;SDS011;32961;51.936;4.788;2023-07-09T11:56:54;5.68;;;3.97;;
47219;SDS011;32961;51.936;4.788;2023-07-09T11:59:23;5.75;;;4.03;;
47219;SDS011;32961;51.936;4.788;2023-07-09T12:01:52;4.90;;;3.58;;
47219;SDS011;32961;51.936;4.788;2023-07-09T12:04:25;10.70;;;4.07;;
47219;SDS011;32961;51.936;4.788;2023-07-09T12:07:00;7.80;;;4.15;;
47219;SDS011;32961;51.936;4.788;2023-07-09T12:09:33;6.00;;;4.20;;
47219;SDS011;32961;51.936;4.788;2023-07-09T12:12:15;7.95;;;4.57;;
47219;SDS011;32961;51.936;4.788;2023-07-09T12:14:45;8.45;;;3.72;;
47219;SDS011;32961;51.936;4.788;2023-07-09T12:17:13;6.18;;;3.45;;
47219;SDS011;32961;51.936;4.788;2023-07-09T12:19:43;8.43;;;4.18;;
47219;SDS011;32961;51.936;4.788;2023-07-09T12:22:14;7.45;;;3.38;;
47219;SDS011;32961;51.936;4.788;2023-07-09T12:24:46;7.75;;;3.40;;
47219;SDS011;32961;51.936;4.788;2023-07-09T12:27:20;6.13;;;3.30;;
47219;SDS011;32961;51.936;4.788;2023-07-09T12:29:50;7.57;;;3.60;;
47219;SDS011;32961;51.936;4.788;2023-07-09T12:32:19;6.88;;;3.15;;
47219;SDS011;32961;51.936;4.788;2023-07-09T12:34:54;7.53;;;3.40;;
47219;SDS011;32961;51.936;4.788;2023-07-09T12:37:24;7.85;;;4.38;;
47219;SDS011;32961;51.936;4.788;2023-07-09T12:39:53;5.43;;;3.50;;
47219;SDS011;32961;51.936;4.788;2023-07-09T12:42:23;9.02;;;2.97;;
47219;SDS011;32961;51.936;4.788;2023-07-09T12:44:57;5.93;;;2.67;;
47219;SDS011;32961;51.936;4.788;2023-07-09T12:47:25;6.05;;;2.80;;
47219;SDS011;32961;51.936;4.788;2023-07-09T12:50:17;5.68;;;2.50;;
47219;SDS011;32961;51.936;4.788;2023-07-09T12:52:47;3.92;;;2.63;;
47219;SDS011;32961;51.936;4.788;2023-07-09T12:55:20;4.90;;;2.60;;
47219;SDS011;32961;51.936;4.788;2023-07-09T12:57:50;6.63;;;2.95;;
47219;SDS011;32961;51.936;4.788;2023-07-09T13:00:18;10.27;;;2.75;;
47219;SDS011;32961;51.936;4.788;2023-07-09T13:02:57;4.53;;;2.72;;
47219;SDS011;32961;51.936;4.788;2023-07-09T13:05:28;6.75;;;3.10;;
47219;SDS011;32961;51.936;4.788;2023-07-09T13:07:58;6.45;;;3.10;;
47219;SDS011;32961;51.936;4.788;2023-07-09T13:10:27;10.57;;;3.78;;
47219;SDS011;32961;51.936;4.788;2023-07-09T13:12:57;7.88;;;3.40;;
47219;SDS011;32961;51.936;4.788;2023-07-09T13:15:29;4.80;;;3.20;;
47219;SDS011;32961;51.936;4.788;2023-07-09T13:17:58;7.82;;;3.28;;
47219;SDS011;32961;51.936;4.788;2023-07-09T13:20:30;10.32;;;3.35;;
47219;SDS011;32961;51.936;4.788;2023-07-09T13:22:58;9.05;;;3.28;;
47219;SDS011;32961;51.936;4.788;2023-07-09T13:25:26;9.88;;;3.42;;
47219;SDS011;32961;51.936;4.788;2023-07-09T13:28:14;6.28;;;3.10;;
47219;SDS011;32961;51.936;4.788;2023-07-09T13:30:46;8.32;;;3.42;;
47219;SDS011;32961;51.936;4.788;2023-07-09T13:33:14;9.20;;;3.20;;
47219;SDS011;32961;51.936;4.788;2023-07-09T13:35:45;8.15;;;2.80;;
47219;SDS011;32961;51.936;4.788;2023-07-09T13:38:14;11.43;;;3.10;;
47219;SDS011;32961;51.936;4.788;2023-07-09T13:40:44;8.07;;;3.08;;
47219;SDS011;32961;51.936;4.788;2023-07-09T13:43:15;12.95;;;3.85;;
47219;SDS011;32961;51.936;4.788;2023-07-09T13:45:49;9.60;;;3.65;;
47219;SDS011;32961;51.936;4.788;2023-07-09T13:48:18;10.80;;;3.88;;
47219;SDS011;32961;51.936;4.788;2023-07-09T13:50:50;8.43;;;4.07;;
47219;SDS011;32961;51.936;4.788;2023-07-09T13:53:20;13.48;;;4.07;;
47219;SDS011;32961;51.936;4.788;2023-07-09T13:55:50;10.45;;;4.53;;
47219;SDS011;32961;51.936;4.788;2023-07-09T13:58:19;10.95;;;5.00;;
47219;SDS011;32961;51.936;4.788;2023-07-09T14:00:49;8.63;;;4.18;;
47219;SDS011;32961;51.936;4.788;2023-07-09T14:03:22;10.18;;;4.90;;
47219;SDS011;32961;51.936;4.788;2023-07-09T14:05:53;15.00;;;5.43;;
47219;SDS011;32961;51.936;4.788;2023-07-09T14:08:21;13.52;;;4.50;;
47219;SDS011;32961;51.936;4.788;2023-07-09T14:10:49;11.50;;;5.38;;
47219;SDS011;32961;51.936;4.788;2023-07-09T14:13:18;13.18;;;6.03;;
47219;SDS011;32961;51.936;4.788;2023-07-09T14:15:48;15.20;;;6.30;;
47219;SDS011;32961;51.936;4.788;2023-07-09T14:18:17;14.45;;;6.18;;
47219;SDS011;32961;51.936;4.788;2023-07-09T14:20:47;15.07;;;6.40;;
47219;SDS011;32961;51.936;4.788;2023-07-09T14:23:17;19.05;;;6.93;;
47219;SDS011;32961;51.936;4.788;2023-07-09T14:25:46;26.13;;;8.80;;
47219;SDS011;32961;51.936;4.788;2023-07-09T14:28:15;22.13;;;7.60;;
47219;SDS011;32961;51.936;4.788;2023-07-09T14:30:45;22.10;;;7.57;;
47219;SDS011;32961;51.936;4.788;2023-07-09T14:33:16;21.45;;;7.13;;
47219;SDS011;32961;51.936;4.788;2023-07-09T14:35:46;21.17;;;7.63;;
47219;SDS011;32961;51.936;4.788;2023-07-09T14:38:15;19.08;;;7.35;;
47219;SDS011;32961;51.936;4.788;2023-07-09T14:40:46;16.50;;;7.75;;
47219;SDS011;32961;51.936;4.788;2023-07-09T14:43:15;12.85;;;7.03;;
47219;SDS011;32961;51.936;4.788;2023-07-09T14:45:44;23.00;;;7.93;;
47219;SDS011;32961;51.936;4.788;2023-07-09T14:48:12;21.25;;;7.72;;
47219;SDS011;32961;51.936;4.788;2023-07-09T14:50:41;18.80;;;7.72;;
47219;SDS011;32961;51.936;4.788;2023-07-09T14:53:13;16.55;;;7.15;;
47219;SDS011;32961;51.936;4.788;2023-07-09T14:55:44;19.83;;;7.88;;
47219;SDS011;32961;51.936;4.788;2023-07-09T14:58:13;12.65;;;5.97;;
47219;SDS011;32961;51.936;4.788;2023-07-09T15:00:43;15.57;;;6.65;;